Capitol Logistics 3280




TNCM
Princess Juliana International Airport
St. Maarten, SX
TJSJ
Luis Munoz Marin International Airport
San Juan, PR

Activity Log

Date Flight Route Aircraft Duration
04/15/2021 CPX3280 JUICE B520 STT RTE6 VARNA JORIL JONIB SF34 1h 10m

Route Details

Aircraft Information
Primary: Saab 340AF
Backup: Not Available
Route Data
Distance: 192nm
Duration: 1h 00m
Recm'd Route: JUICE B520 STT RTE6 SJU
Origin Wx: TNCM 191100Z 05009KT 9999 FEW018 28/23 Q1019 NOSIG
Dest. Wx: TJSJ 191056Z 10006KT 9SM FEW029 SCT085 SCT110 27/23 A3010 RMK AO2 SLP191 HZ ALQDS T02670228
Notes: